Time;durP1;ratioP1;P1;durP2;ratioP2;P2;SDS_P1;SDS_P2;PMS_P1;PMS_P2;Temp;Humidity;BMP_temperature;BMP_pressure;BME280_temperature;BME280_humidity;BME280_pressure;Samples;Min_cycle;Max_cycle;Signal;HPM_P1;HPM_P2
2022/02/06 00:01:48;;;;;;;4.45;2.05;;;;;;;19.68;54.13;101308.44;4969083;28;20101;-50
2022/02/06 00:04:14;;;;;;;3.22;2.28;;;;;;;19.66;53.83;101305.97;4965568;28;20386;-51
2022/02/06 00:06:39;;;;;;;4.50;1.90;;;;;;;19.66;53.96;101305.97;4969573;28;20531;-52
2022/02/06 00:09:05;;;;;;;2.42;1.63;;;;;;;19.65;53.93;101298.22;4964236;28;20561;-57
2022/02/06 00:11:30;;;;;;;3.25;2.38;;;;;;;19.65;53.93;101300.88;4972248;28;20558;-51
2022/02/06 00:13:56;;;;;;;2.60;1.83;;;;;;;19.64;53.74;101302.69;4970860;28;20035;-56
2022/02/06 00:16:23;;;;;;;6.22;2.13;;;;;;;19.64;53.83;101304.53;4949326;28;20026;-46
2022/02/06 00:18:48;;;;;;;3.55;1.90;;;;;;;19.63;53.77;101295.75;4967670;28;20027;-49
2022/02/06 00:21:17;;;;;;;4.25;2.10;;;;;;;19.63;53.86;101294.94;4963661;28;20085;-47
2022/02/06 00:23:44;;;;;;;4.55;2.08;;;;;;;19.63;53.70;101292.31;4977929;28;20391;-47
2022/02/06 00:26:20;;;;;;;3.05;2.20;;;;;;;19.62;53.67;101296.78;4943145;29;20024;-49
2022/02/06 00:29:39;;;;;;;4.18;2.38;;;;;;;19.62;53.81;101299.41;4960435;28;20041;-48
2022/02/06 00:31:48;;;;;;;3.97;2.13;;;;;;;19.60;53.72;101292.66;4957414;28;20649;-55
2022/02/06 00:34:33;;;;;;;2.72;1.83;;;;;;;19.60;53.73;101295.31;4960015;28;20034;-49
2022/02/06 00:39:42;;;;;;;5.70;2.10;;;;;;;19.58;53.78;101303.41;4964522;28;20286;-48
2022/02/06 00:42:08;;;;;;;3.20;1.85;;;;;;;19.60;53.65;101300.59;4961623;28;20027;-60
2022/02/06 00:44:34;;;;;;;4.72;2.25;;;;;;;19.60;53.62;101304.06;4966613;28;20383;-51
2022/02/06 00:47:02;;;;;;;3.60;2.47;;;;;;;19.58;53.68;101303.41;4965494;28;20157;-47
2022/02/06 00:49:30;;;;;;;4.13;2.22;;;;;;;19.58;53.74;101299.97;4945517;28;20031;-49
2022/02/06 00:52:10;;;;;;;2.72;2.22;;;;;;;19.58;53.66;101299.97;4966147;28;20375;-52
2022/02/06 00:54:36;;;;;;;2.88;2.17;;;;;;;19.57;53.31;101298.31;4932378;28;20045;-55
2022/02/06 00:57:02;;;;;;;4.45;2.35;;;;;;;19.55;53.65;101293.22;4957352;28;20243;-50
2022/02/06 00:59:27;;;;;;;3.55;1.90;;;;;;;19.54;53.53;101292.41;4965370;28;20130;-53
2022/02/06 01:01:53;;;;;;;5.07;2.20;;;;;;;19.54;53.64;101297.69;4967924;28;20102;-53
2022/02/06 01:04:19;;;;;;;6.35;2.10;;;;;;;19.54;53.61;101300.31;4964095;28;20034;-41
2022/02/06 01:06:46;;;;;;;3.42;2.20;;;;;;;19.54;53.44;101296.84;4968401;28;20477;-51
2022/02/06 01:09:12;;;;;;;3.92;2.33;;;;;;;19.52;53.41;101297.03;4951127;28;20061;-45
2022/02/06 01:11:38;;;;;;;3.25;1.88;;;;;;;19.52;53.57;101297.03;4957144;28;20166;-52
2022/02/06 01:17:04;;;;;;;3.15;1.83;;;;;;;19.48;53.43;101289.63;4963990;28;20410;-45
2022/02/06 01:19:41;;;;;;;2.97;1.33;;;;;;;19.48;53.33;101289.63;4980282;28;20034;-53
2022/02/06 01:22:10;;;;;;;2.38;1.55;;;;;;;19.47;53.43;101283.53;4938896;28;20088;-52
2022/02/06 01:24:49;;;;;;;2.55;1.40;;;;;;;19.47;53.28;101293.28;4950855;28;20041;-46
2022/02/06 01:27:20;;;;;;;3.60;1.90;;;;;;;19.46;53.39;101292.44;4950309;28;20127;-55
2022/02/06 01:29:55;;;;;;;5.03;1.70;;;;;;;19.45;53.24;101290.00;4958578;28;20033;-48
2022/02/06 01:32:25;;;;;;;;;;;;;;;19.34;53.23;101293.13;4958041;28;20035;-50
2022/02/06 01:34:58;;;;;;;2.83;1.77;;;;;;;19.37;53.43;101282.19;4947511;28;19921;-43
2022/02/06 01:43:10;;;;;;;2.55;1.63;;;;;;;19.37;53.27;101283.00;4968014;28;20037;-53
2022/02/06 01:45:53;;;;;;;6.63;2.05;;;;;;;19.38;53.19;101274.03;4951876;28;20026;-44
2022/02/06 02:10:13;;;;;;;2.28;1.38;;;;;;;19.33;53.00;101252.66;4964947;28;20038;-53
2022/02/06 02:23:29;;;;;;;2.80;1.73;;;;;;;19.33;52.64;101234.16;4984830;28;20146;-54
2022/02/06 02:31:53;;;;;;;4.13;1.90;;;;;;;19.31;52.71;101241.44;4987517;28;20076;-47
2022/02/06 02:47:54;;;;;;;3.25;1.63;;;;;;;19.27;52.47;101239.34;4986702;28;20456;-54
2022/02/06 02:50:22;;;;;;;2.58;1.63;;;;;;;19.27;52.20;101244.63;4969035;28;20031;-46
2022/02/06 02:58:16;;;;;;;2.33;1.63;;;;;;;19.25;51.80;101230.78;4978336;28;20137;-56
2022/02/06 03:03:16;;;;;;;3.25;1.77;;;;;;;19.24;52.20;101222.03;4980336;28;20398;-45
2022/02/06 03:05:48;;;;;;;2.58;1.52;;;;;;;19.25;51.87;101222.88;4968873;28;20108;-49
2022/02/06 03:08:13;;;;;;;1.83;1.48;;;;;;;19.24;51.82;101216.75;4986416;28;20035;-54
2022/02/06 03:10:39;;;;;;;2.33;1.67;;;;;;;19.24;51.77;101214.13;4968485;28;20417;-46
2022/02/06 03:13:09;;;;;;;2.70;1.63;;;;;;;19.24;51.62;101219.41;4975432;28;20137;-46
2022/02/06 03:15:44;;;;;;;2.72;1.35;;;;;;;19.23;52.02;101209.84;4986368;28;20018;-49
2022/02/06 03:18:17;;;;;;;3.65;1.83;;;;;;;19.21;52.19;101209.19;4968455;28;20516;-55
2022/02/06 03:20:43;;;;;;;3.00;1.98;;;;;;;19.19;52.29;101212.03;4969139;28;20064;-48
2022/02/06 03:23:11;;;;;;;2.90;1.70;;;;;;;19.19;52.20;101204.09;4984482;28;20060;-49
2022/02/06 03:25:45;;;;;;;3.30;2.00;;;;;;;19.19;52.31;101200.63;4985187;28;20504;-50
2022/02/06 03:28:11;;;;;;;1.95;1.40;;;;;;;19.17;52.25;101202.63;4968373;28;20042;-42
2022/02/06 03:30:36;;;;;;;3.60;1.50;;;;;;;19.17;52.22;101207.94;4987154;28;20382;-49
2022/02/06 03:33:02;;;;;;;2.38;1.52;;;;;;;19.16;52.22;101209.75;4986529;28;20027;-47
2022/02/06 03:35:27;;;;;;;1.35;0.95;;;;;;;19.16;52.15;101201.00;4986758;28;20058;-46
2022/02/06 03:37:53;;;;;;;2.22;1.42;;;;;;;19.16;52.09;101195.72;4984672;28;20026;-50
2022/02/06 03:40:26;;;;;;;1.90;1.10;;;;;;;19.15;52.04;101188.78;4986820;28;20077;-47
2022/02/06 03:43:19;;;;;;;1.83;1.08;;;;;;;19.14;51.90;101195.09;4985771;28;20030;-51
2022/02/06 03:46:07;;;;;;;2.22;1.35;;;;;;;19.11;52.00;101198.91;4985566;28;20042;-51
2022/02/06 03:48:45;;;;;;;2.17;1.10;;;;;;;19.11;52.16;101198.09;4987614;28;20046;-47
2022/02/06 03:51:18;;;;;;;2.88;1.23;;;;;;;19.10;52.07;101199.09;4988542;28;20041;-54
2022/02/06 03:53:45;;;;;;;2.60;1.85;;;;;;;19.11;52.08;101203.38;4971572;28;20441;-43
2022/02/06 03:56:11;;;;;;;1.95;1.42;;;;;;;19.11;51.96;101201.53;4988029;28;20038;-54
2022/02/06 03:58:37;;;;;;;1.98;1.55;;;;;;;19.11;51.82;101195.44;4989394;28;20361;-50
2022/02/06 04:01:03;;;;;;;3.72;1.88;;;;;;;19.11;51.86;101192.81;4989530;28;20136;-54
2022/02/06 04:03:28;;;;;;;2.30;1.30;;;;;;;19.12;51.77;101195.25;4988845;28;20160;-45
2022/02/06 04:05:54;;;;;;;3.33;1.60;;;;;;;19.11;51.72;101192.81;4989476;28;20030;-52
2022/02/06 04:08:20;;;;;;;3.22;1.80;;;;;;;19.11;51.83;101190.97;4988763;28;20093;-49
2022/02/06 04:10:49;;;;;;;3.25;1.48;;;;;;;19.11;51.67;101187.53;4972733;28;20034;-47
2022/02/06 04:13:19;;;;;;;2.25;1.13;;;;;;;19.11;51.50;101182.25;4988744;28;20130;-50
2022/02/06 04:15:48;;;;;;;2.03;1.52;;;;;;;19.11;51.58;101169.84;4989365;28;20092;-51
2022/02/06 04:18:22;;;;;;;3.20;1.52;;;;;;;19.10;51.49;101162.13;4987250;28;20153;-47
2022/02/06 04:20:48;;;;;;;1.83;1.42;;;;;;;19.09;51.31;101166.56;4989878;28;20033;-48
2022/02/06 04:23:13;;;;;;;1.90;1.38;;;;;;;19.09;51.20;101158.66;4981938;28;20026;-47
2022/02/06 04:25:39;;;;;;;2.85;1.55;;;;;;;19.09;50.96;101163.13;4988642;28;20109;-54
2022/02/06 04:28:05;;;;;;;2.70;1.40;;;;;;;19.08;50.85;101159.66;4989353;28;20030;-54
2022/02/06 04:30:31;;;;;;;2.22;1.23;;;;;;;19.09;51.01;101157.84;4988971;28;20501;-46
2022/02/06 04:32:57;;;;;;;2.53;1.42;;;;;;;19.09;51.13;101152.56;4988862;28;20041;-52
2022/02/06 04:35:27;;;;;;;2.10;1.20;;;;;;;19.08;51.13;101151.72;4989459;28;20026;-55
2022/02/06 04:43:30;;;;;;;2.33;1.23;;;;;;;19.06;51.60;101160.84;4988536;28;20577;-51
2022/02/06 04:53:55;;;;;;;2.50;1.37;;;;;;;19.00;51.24;101154.47;4987514;28;20053;-50
2022/02/06 05:28:50;;;;;;;3.05;1.40;;;;;;;18.93;50.29;101171.22;4988465;28;20041;-48
2022/02/06 05:34:01;;;;;;;3.20;1.00;;;;;;;18.89;50.32;101168.97;4956968;28;20034;-45
2022/02/06 05:36:27;;;;;;;2.45;0.98;;;;;;;18.89;50.01;101166.31;4987468;28;20125;-43
2022/02/06 05:38:52;;;;;;;1.55;0.98;;;;;;;18.90;50.21;101175.84;4988064;28;20147;-50
2022/02/06 05:41:17;;;;;;;1.65;1.05;;;;;;;18.89;50.34;101168.16;4988469;28;20525;-46
2022/02/06 05:43:43;;;;;;;1.95;1.10;;;;;;;18.88;50.36;101172.59;4987037;28;20025;-49
2022/02/06 05:46:08;;;;;;;2.08;1.17;;;;;;;18.87;50.35;101176.25;4986828;28;20065;-43
2022/02/06 05:48:34;;;;;;;2.55;1.27;;;;;;;18.88;50.37;101187.63;4988251;28;20302;-49
2022/02/06 05:51:00;;;;;;;1.90;0.85;;;;;;;18.86;50.57;101189.63;4987372;28;20045;-45
2022/02/06 05:53:25;;;;;;;1.20;0.90;;;;;;;18.85;50.46;101175.59;4986956;28;20524;-47
2022/02/06 05:55:51;;;;;;;3.15;1.00;;;;;;;18.85;50.49;101178.25;4987347;28;20114;-48
2022/02/06 05:58:16;;;;;;;2.75;1.23;;;;;;;18.85;50.44;101174.78;4987418;28;20018;-54
2022/02/06 06:00:42;;;;;;;2.05;1.10;;;;;;;18.85;50.27;101180.88;4985685;28;20442;-52
2022/02/06 06:03:08;;;;;;;2.03;1.17;;;;;;;18.84;50.37;101173.16;4987786;28;20436;-48
2022/02/06 06:05:35;;;;;;;1.70;1.25;;;;;;;18.85;50.30;101172.97;4987424;28;20371;-54
2022/02/06 06:08:00;;;;;;;2.58;1.13;;;;;;;18.84;50.33;101171.31;4986288;28;20042;-47
2022/02/06 06:10:26;;;;;;;3.15;0.88;;;;;;;18.85;50.35;101172.16;4986933;28;20022;-50
2022/02/06 06:12:52;;;;;;;1.73;1.02;;;;;;;18.84;50.32;101166.03;4986651;28;20446;-46
2022/02/06 06:15:17;;;;;;;1.00;0.60;;;;;;;18.85;50.25;101162.41;4987098;28;20456;-44
2022/02/06 06:17:44;;;;;;;2.25;1.08;;;;;;;18.85;50.17;101161.59;4987263;28;20053;-52
2022/02/06 06:20:14;;;;;;;1.60;0.95;;;;;;;18.85;50.16;101161.59;4969888;28;20052;-48
2022/02/06 06:22:40;;;;;;;2.15;1.00;;;;;;;18.84;50.09;101178.44;4987024;28;20058;-51
2022/02/06 06:25:07;;;;;;;1.50;0.90;;;;;;;18.84;49.88;101170.50;4968749;28;20489;-47
2022/02/06 06:27:33;;;;;;;2.20;0.85;;;;;;;18.84;49.77;101191.63;4987397;28;20480;-46
2022/02/06 06:29:59;;;;;;;1.75;0.90;;;;;;;18.83;49.88;101182.88;4986751;28;20018;-43
2022/02/06 06:32:24;;;;;;;2.17;1.25;;;;;;;18.83;50.03;101184.72;4984838;28;20557;-56
2022/02/06 06:34:51;;;;;;;1.63;0.70;;;;;;;18.83;50.06;101188.16;4986973;28;20497;-54
2022/02/06 06:37:18;;;;;;;2.30;1.20;;;;;;;18.82;49.95;101196.25;4968090;28;20038;-47
2022/02/06 06:39:45;;;;;;;1.70;1.00;;;;;;;18.82;49.94;101196.25;4985874;28;20497;-44
2022/02/06 06:42:12;;;;;;;2.13;1.00;;;;;;;18.80;49.92;101196.44;4986873;28;20441;-51
2022/02/06 06:44:38;;;;;;;2.08;0.82;;;;;;;18.80;49.96;101195.63;4986622;28;20089;-48
2022/02/06 06:47:05;;;;;;;1.92;0.90;;;;;;;18.79;49.88;101194.00;4984501;28;20038;-54
2022/02/06 06:49:31;;;;;;;2.10;1.17;;;;;;;18.77;49.77;101196.81;4987024;28;20058;-51
2022/02/06 06:51:58;;;;;;;2.22;0.80;;;;;;;18.76;49.77;101195.16;4986326;28;20030;-48
2022/02/06 06:54:23;;;;;;;2.00;1.00;;;;;;;18.76;49.77;101189.06;4986665;28;20030;-43
2022/02/06 06:57:28;;;;;;;1.80;0.90;;;;;;;18.74;49.84;101186.59;4969261;28;20448;-52
2022/02/06 07:00:07;;;;;;;1.77;0.90;;;;;;;18.73;49.97;101190.25;4983599;28;20486;-56
2022/02/06 07:02:29;;;;;;;1.50;0.90;;;;;;;18.72;49.90;101185.97;4985348;28;20046;-45
2022/02/06 07:04:57;;;;;;;2.13;0.93;;;;;;;18.73;50.00;101190.25;4986134;28;20026;-52
2022/02/06 07:07:23;;;;;;;1.35;1.15;;;;;;;18.74;49.95;101185.78;4984396;28;20036;-44
2022/02/06 07:09:48;;;;;;;1.60;0.70;;;;;;;18.73;50.02;101184.97;4985486;28;20030;-53
2022/02/06 07:12:14;;;;;;;1.13;0.63;;;;;;;18.74;50.08;101189.25;4986603;28;20522;-57
2022/02/06 07:14:44;;;;;;;1.42;0.80;;;;;;;18.75;50.05;101187.41;4985019;28;20033;-54
2022/02/06 07:17:10;;;;;;;0.95;0.60;;;;;;;18.76;50.19;101184.59;4968645;28;20085;-48
2022/02/06 07:19:36;;;;;;;1.67;0.73;;;;;;;18.78;50.23;101176.50;4986668;28;20022;-53
2022/02/06 07:22:02;;;;;;;2.75;0.82;;;;;;;18.80;50.14;101179.78;4986532;28;20418;-56
2022/02/06 07:24:28;;;;;;;2.13;0.95;;;;;;;18.81;50.23;101176.97;4989465;28;20041;-48
2022/02/06 07:26:59;;;;;;;1.20;0.50;;;;;;;18.83;50.32;101179.44;4981908;28;20038;-43
2022/02/06 07:29:24;;;;;;;1.70;0.80;;;;;;;18.85;50.31;101180.06;4992527;28;20038;-46
2022/02/06 07:31:51;;;;;;;1.25;0.65;;;;;;;18.87;50.26;101184.16;4989259;28;20034;-46
2022/02/06 07:34:17;;;;;;;1.80;0.70;;;;;;;18.90;50.28;101189.06;4971360;28;20115;-47
2022/02/06 07:36:42;;;;;;;1.45;0.65;;;;;;;18.93;49.99;101189.69;4989337;28;20125;-52
2022/02/06 07:39:08;;;;;;;1.80;0.85;;;;;;;18.95;50.26;101192.97;4989541;28;20540;-48
2022/02/06 07:41:34;;;;;;;1.30;0.73;;;;;;;18.99;50.31;101188.97;4989035;28;20724;-51
2022/02/06 07:43:59;;;;;;;1.40;0.60;;;;;;;19.01;50.24;101193.06;4989681;28;20042;-47
2022/02/06 07:46:30;;;;;;;1.08;0.60;;;;;;;19.04;50.10;101186.59;4989825;28;20070;-52
2022/02/06 07:49:02;;;;;;;2.25;0.80;;;;;;;19.09;50.25;101193.00;4971056;28;20046;-41
2022/02/06 07:51:28;;;;;;;3.10;0.80;;;;;;;19.11;50.23;101195.44;4958621;28;20035;-48
2022/02/06 07:53:53;;;;;;;1.65;0.60;;;;;;;19.13;50.20;101190.81;4988852;28;20532;-48
2022/02/06 07:56:19;;;;;;;1.25;0.60;;;;;;;19.15;50.09;101189.63;4989855;28;20031;-51
2022/02/06 07:58:44;;;;;;;1.00;0.60;;;;;;;19.17;50.04;101189.44;4987971;28;20060;-54
2022/02/06 08:01:10;;;;;;;1.35;0.70;;;;;;;19.21;49.92;101188.06;4987999;28;20130;-46
2022/02/06 08:03:35;;;;;;;1.60;0.70;;;;;;;19.23;49.82;101180.78;4989751;28;20019;-51
2022/02/06 08:06:01;;;;;;;1.63;0.60;;;;;;;19.27;49.80;101175.94;4989785;28;20038;-52
2022/02/06 08:08:26;;;;;;;2.22;0.52;;;;;;;19.30;49.69;101178.22;4989593;28;20045;-53
2022/02/06 08:10:58;;;;;;;2.08;0.70;;;;;;;19.33;49.64;101181.31;4989658;28;20030;-48
2022/02/06 08:13:29;;;;;;;1.73;0.77;;;;;;;19.36;49.53;101180.13;4989885;28;20390;-41
2022/02/06 08:15:54;;;;;;;1.50;0.80;;;;;;;19.39;49.42;101183.19;4957288;28;20050;-49
2022/02/06 08:18:20;;;;;;;1.75;0.63;;;;;;;19.44;49.22;101187.94;4990190;28;20026;-47
2022/02/06 08:20:45;;;;;;;1.20;0.57;;;;;;;19.48;49.32;101192.66;4989299;28;20473;-53
2022/02/06 08:23:11;;;;;;;1.50;0.70;;;;;;;19.52;49.43;101195.78;4989009;28;20557;-51
2022/02/06 08:25:37;;;;;;;1.00;0.45;;;;;;;19.55;49.34;101195.41;4978834;28;20080;-44
2022/02/06 08:28:03;;;;;;;1.25;0.50;;;;;;;19.59;49.17;101198.50;4989373;28;20042;-51
2022/02/06 08:30:30;;;;;;;1.27;0.70;;;;;;;19.61;49.31;101204.44;4988801;28;20041;-50
2022/02/06 08:32:56;;;;;;;1.10;0.68;;;;;;;19.61;49.06;101196.50;4985909;28;20034;-51
2022/02/06 08:35:22;;;;;;;1.10;0.60;;;;;;;19.63;49.24;101191.84;4988366;28;20034;-54
2022/02/06 08:37:49;;;;;;;1.50;0.85;;;;;;;19.64;49.02;101188.22;4989174;28;20489;-52
2022/02/06 08:40:16;;;;;;;1.10;0.60;;;;;;;19.67;49.17;101191.31;4988913;28;20026;-50
2022/02/06 08:42:43;;;;;;;3.10;0.80;;;;;;;19.71;49.22;101199.69;4988206;28;20037;-54
2022/02/06 08:45:11;;;;;;;1.40;0.80;;;;;;;19.73;49.09;101202.97;4987026;28;20590;-51
2022/02/06 08:47:37;;;;;;;2.17;0.80;;;;;;;19.74;49.16;101201.94;4987931;28;20181;-47
2022/02/06 08:50:04;;;;;;;1.67;0.55;;;;;;;19.75;49.18;101204.41;4985064;28;20052;-47
2022/02/06 08:52:29;;;;;;;1.95;0.70;;;;;;;19.76;49.07;101203.41;4988073;28;20049;-50
2022/02/06 08:54:55;;;;;;;1.50;0.70;;;;;;;19.79;49.08;101199.56;4985936;28;20026;-48
2022/02/06 08:57:24;;;;;;;3.03;0.75;;;;;;;19.81;49.05;101197.56;4987231;28;20034;-51
2022/02/06 08:59:50;;;;;;;2.08;0.70;;;;;;;19.82;49.14;101191.25;4983499;28;20034;-52
2022/02/06 09:02:16;;;;;;;1.27;0.50;;;;;;;19.84;49.12;101195.38;4984461;28;20371;-53
2022/02/06 09:04:42;;;;;;;1.38;0.60;;;;;;;19.86;48.96;101197.78;4985065;28;20027;-48
2022/02/06 09:07:08;;;;;;;0.70;0.40;;;;;;;19.86;49.02;101209.19;4988398;28;20474;-46
2022/02/06 09:09:35;;;;;;;5.45;1.13;;;;;;;19.85;48.96;101206.72;4987380;28;20405;-55
2022/02/06 09:12:02;;;;;;;2.10;1.40;;;;;;;19.83;47.71;101192.91;4969295;28;20054;-48
2022/02/06 09:14:28;;;;;;;2.30;1.73;;;;;;;19.81;47.05;101189.63;4966737;28;20423;-48
2022/02/06 09:16:54;;;;;;;2.78;1.10;;;;;;;19.83;46.93;101179.69;4986821;28;20026;-42
2022/02/06 09:19:20;;;;;;;4.70;1.15;;;;;;;19.85;47.16;101182.94;4984951;28;20045;-45
2022/02/06 09:21:46;;;;;;;3.00;1.20;;;;;;;19.87;47.93;101183.56;4983260;28;20031;-49
2022/02/06 09:24:12;;;;;;;3.97;1.30;;;;;;;19.87;48.51;101183.56;4987067;28;20030;-51
2022/02/06 09:26:39;;;;;;;7.75;1.23;;;;;;;19.87;48.80;101191.50;4986684;28;20030;-53
2022/02/06 09:29:06;;;;;;;4.70;1.05;;;;;;;19.89;49.05;101192.13;4988454;28;20045;-55
2022/02/06 09:31:31;;;;;;;4.32;1.15;;;;;;;19.89;49.59;101198.22;4989420;28;20469;-49
2022/02/06 09:36:24;;;;;;;7.25;1.20;;;;;;;20.00;49.78;101199.56;4980595;28;20030;-55
2022/02/06 09:38:49;;;;;;;5.85;1.70;;;;;;;20.07;50.51;101204.94;4982205;28;20035;-55
2022/02/06 09:41:15;;;;;;;6.15;1.45;;;;;;;20.05;50.59;101199.81;4977293;28;20034;-47
2022/02/06 09:43:43;;;;;;;5.22;1.25;;;;;;;20.00;50.80;101199.56;4981586;28;20042;-52
2022/02/06 09:46:09;;;;;;;6.55;1.00;;;;;;;19.98;50.75;101204.22;4958311;28;20043;-46
2022/02/06 09:48:38;;;;;;;3.20;0.88;;;;;;;19.95;50.67;101201.13;4981657;28;20148;-44
2022/02/06 09:51:03;;;;;;;4.70;0.85;;;;;;;19.94;50.82;101210.06;4964675;28;20374;-46
2022/02/06 09:53:29;;;;;;;3.70;0.85;;;;;;;19.93;50.52;101208.44;4983942;28;20077;-46
2022/02/06 09:56:01;;;;;;;2.67;0.88;;;;;;;19.91;50.49;101210.44;4970340;28;20125;-47
2022/02/06 10:00:53;;;;;;;5.32;0.90;;;;;;;19.89;50.19;101205.34;4980421;28;20121;-58
2022/02/06 10:03:20;;;;;;;5.32;1.08;;;;;;;19.87;50.22;101197.59;4964145;28;20031;-53
2022/02/06 10:05:46;;;;;;;8.68;0.80;;;;;;;19.87;50.24;101187.03;4978781;28;20034;-52
2022/02/06 10:08:24;;;;;;;3.33;1.00;;;;;;;19.85;50.17;101180.28;4979702;28;20034;-56
2022/02/06 10:11:02;;;;;;;4.15;0.80;;;;;;;19.85;51.40;101188.22;4977809;28;20493;-43
2022/02/06 10:13:27;;;;;;;4.50;1.00;;;;;;;19.87;50.89;101188.84;4981632;28;20053;-49
2022/02/06 10:15:55;;;;;;;4.00;1.13;;;;;;;19.89;50.28;101181.56;4986009;28;20030;-52
2022/02/06 10:18:21;;;;;;;7.43;1.15;;;;;;;19.91;50.24;101179.53;4984986;28;20041;-52
2022/02/06 10:20:47;;;;;;;7.15;1.13;;;;;;;19.93;50.00;101171.41;4965216;28;20153;-55
2022/02/06 10:23:37;;;;;;;2.28;1.08;;;;;;;19.95;49.73;101169.41;4965630;28;20113;-60
2022/02/06 10:26:07;;;;;;;3.90;1.13;;;;;;;19.96;49.75;101163.09;4967454;28;20789;-59
2022/02/06 10:28:42;;;;;;;1.95;0.90;;;;;;;19.99;49.52;101160.91;4980346;28;20039;-60
2022/02/06 10:31:09;;;;;;;3.50;0.90;;;;;;;20.00;49.66;101151.97;4973432;28;20390;-60
2022/02/06 10:34:02;;;;;;;3.72;0.95;;;;;;;20.02;49.28;101149.13;4993315;28;20390;-52
2022/02/06 10:36:36;;;;;;;2.92;0.98;;;;;;;20.00;49.30;101141.38;4978393;28;20481;-57
2022/02/06 10:39:11;;;;;;;3.83;1.25;;;;;;;19.98;49.24;101147.88;4976526;28;20987;-48
2022/02/06 10:41:44;;;;;;;;;;;;;;;19.91;49.44;101141.69;4977811;28;20121;-50
2022/02/06 10:44:09;;;;;;;7.53;1.23;;;;;;;19.93;49.43;101140.50;4983391;28;19976;-52
2022/02/06 10:46:58;;;;;;;6.80;0.93;;;;;;;19.93;49.26;101143.16;4984757;28;20861;-57
2022/02/06 10:49:25;;;;;;;7.38;1.10;;;;;;;19.96;49.17;101134.84;4963508;28;20045;-50
2022/02/06 10:51:58;;;;;;;5.45;1.08;;;;;;;19.94;48.89;101126.28;4983990;28;20121;-46
2022/02/06 10:54:29;;;;;;;4.82;1.08;;;;;;;19.93;48.87;101122.00;4986933;28;20041;-63
2022/02/06 10:57:15;;;;;;;4.63;1.10;;;;;;;19.91;48.51;101117.91;4978373;28;20486;-61
2022/02/06 10:59:43;;;;;;;3.67;0.70;;;;;;;19.89;48.67;101113.63;4986962;28;20042;-55
2022/02/06 11:02:39;;;;;;;2.15;0.95;;;;;;;19.87;48.47;101106.88;4986554;28;20046;-57
2022/02/06 11:05:16;;;;;;;4.43;1.08;;;;;;;19.87;48.47;101106.88;4983848;28;20073;-54
2022/02/06 11:08:00;;;;;;;1.15;0.50;;;;;;;19.84;48.24;101105.47;4986332;28;20117;-59
2022/02/06 11:10:28;;;;;;;7.22;1.02;;;;;;;19.86;48.46;101097.31;4985287;28;20125;-51
2022/02/06 11:12:55;;;;;;;3.13;1.10;;;;;;;19.86;48.52;101094.66;4986301;28;20061;-54
2022/02/06 11:15:32;;;;;;;5.95;1.17;;;;;;;19.85;48.35;101090.38;4986396;28;20030;-54
2022/02/06 11:18:21;;;;;;;2.08;0.77;;;;;;;19.81;48.48;101092.63;4986849;28;20049;-57
2022/02/06 11:21:00;;;;;;;1.73;0.90;;;;;;;19.81;48.45;101094.44;4986902;28;20037;-53
2022/02/06 11:23:47;;;;;;;2.38;0.93;;;;;;;19.80;48.33;101082.22;4986938;28;20038;-59
2022/02/06 11:26:18;;;;;;;7.15;0.93;;;;;;;19.81;48.41;101084.69;4975273;28;20088;-58
2022/02/06 11:28:45;;;;;;;3.00;0.70;;;;;;;19.84;48.33;101078.19;4987201;28;20121;-45
2022/02/06 11:31:11;;;;;;;4.07;1.10;;;;;;;19.83;48.27;101077.38;4986923;28;20764;-57
2022/02/06 11:33:37;;;;;;;3.10;0.88;;;;;;;19.83;48.17;101069.44;4986785;28;20035;-61
2022/02/06 11:36:14;;;;;;;2.97;1.05;;;;;;;19.83;48.15;101069.44;4987723;28;20034;-52
2022/02/06 11:45:11;;;;;;;2.70;1.05;;;;;;;19.77;47.89;101050.88;4977313;28;20080;-59
2022/02/06 11:47:42;;;;;;;3.95;0.77;;;;;;;19.76;48.13;101055.34;4981956;28;20401;-56
2022/02/06 11:50:11;;;;;;;1.77;0.95;;;;;;;19.77;48.01;101050.88;4966454;28;20182;-51
2022/02/06 11:52:55;;;;;;;3.72;1.05;;;;;;;19.72;47.84;101042.69;4983340;28;20034;-61
2022/02/06 11:55:33;;;;;;;3.10;1.02;;;;;;;19.70;48.03;101037.59;4982803;28;20062;-59
2022/02/06 11:58:28;;;;;;;3.70;1.25;;;;;;;19.67;47.98;101032.69;4983869;28;20026;-55
2022/02/06 12:01:05;;;;;;;4.43;1.48;;;;;;;19.64;48.29;101021.69;4966101;28;20073;-48
2022/02/06 12:04:00;;;;;;;2.58;1.17;;;;;;;19.62;48.51;101015.75;4980624;28;20042;-57
2022/02/06 12:06:48;;;;;;;4.05;1.15;;;;;;;19.61;48.68;101009.66;4984766;28;20037;-48
2022/02/06 12:09:19;;;;;;;2.08;1.00;;;;;;;19.60;48.76;101002.75;4968552;28;20062;-46
2022/02/06 12:12:03;;;;;;;3.28;0.98;;;;;;;19.60;48.82;100997.44;4987852;28;20058;-50
2022/02/06 12:14:33;;;;;;;8.40;1.25;;;;;;;19.65;48.83;100999.53;4988171;28;20030;-46
2022/02/06 12:20:04;;;;;;;1.65;1.25;;;;;;;19.64;48.89;100984.69;4989777;28;20145;-46
2022/02/06 12:22:29;;;;;;;4.03;2.03;;;;;;;19.69;50.58;100977.81;4984806;28;20049;-46
2022/02/06 12:25:18;;;;;;;4.32;1.95;;;;;;;19.74;53.00;100977.22;4987276;28;20030;-52
2022/02/06 12:27:46;;;;;;;4.47;2.20;;;;;;;19.76;52.99;100969.94;4985624;28;20053;-50
2022/02/06 12:30:24;;;;;;;6.47;2.15;;;;;;;19.75;54.34;100971.75;5000858;28;20038;-54
2022/02/06 12:32:50;;;;;;;3.20;2.30;;;;;;;19.78;54.72;100957.34;4973068;28;20394;-53
2022/02/06 12:38:00;;;;;;;6.00;2.13;;;;;;;19.85;54.54;100950.25;4978530;28;20034;-47
2022/02/06 12:40:28;;;;;;;5.93;2.80;;;;;;;19.89;54.34;100944.38;4987059;28;20034;-47
2022/02/06 12:43:01;;;;;;;5.40;2.08;;;;;;;19.93;53.46;100944.00;4982387;28;20030;-60
2022/02/06 12:45:29;;;;;;;5.85;2.67;;;;;;;19.93;53.34;100938.69;4979607;28;20465;-57
2022/02/06 12:47:59;;;;;;;5.60;2.50;;;;;;;19.94;53.54;100933.22;4986411;28;20104;-52
2022/02/06 12:50:31;;;;;;;8.52;3.85;;;;;;;19.94;54.99;100930.56;4986776;28;20498;-50
2022/02/06 12:52:58;;;;;;;7.03;3.45;;;;;;;20.04;53.94;100925.75;4959283;28;20022;-63
2022/02/06 12:55:32;;;;;;;5.57;3.67;;;;;;;20.06;53.48;100928.22;4959479;28;20030;-46
2022/02/06 12:57:59;;;;;;;5.10;3.38;;;;;;;20.06;52.93;100918.44;4985799;28;20093;-61
2022/02/06 13:00:34;;;;;;;5.38;3.80;;;;;;;20.10;52.39;100919.69;4985945;28;20026;-59
2022/02/06 13:03:27;;;;;;;6.28;3.58;;;;;;;20.13;51.90;100921.94;4970763;28;20088;-53
2022/02/06 13:06:03;;;;;;;6.35;3.17;;;;;;;20.14;51.49;100915.63;4971443;28;20034;-52
2022/02/06 13:08:32;;;;;;;6.05;3.28;;;;;;;20.14;51.44;100904.25;4984952;28;20528;-48
2022/02/06 13:11:03;;;;;;;3.90;2.72;;;;;;;20.14;51.36;100896.31;4970419;28;20038;-54
2022/02/06 13:13:51;;;;;;;5.68;3.35;;;;;;;20.14;50.87;100897.13;4983427;28;20053;-56
2022/02/06 13:19:17;;;;;;;4.65;3.35;;;;;;;20.17;50.89;100904.66;4987330;28;20031;-54
2022/02/06 13:25:13;;;;;;;;;;;;;;;;;;;;;
2022/02/06 13:33:20;;;;;;;4.32;3.15;;;;;;;20.05;50.24;100906.22;4986911;28;20104;-55
2022/02/06 13:38:06;;;;;;;9.95;5.30;;;;;;;20.00;50.24;100898.06;4984975;28;20046;-53
2022/02/06 13:40:33;;;;;;;6.68;4.50;;;;;;;19.99;50.14;100890.31;4982937;28;20109;-47
2022/02/06 13:43:00;;;;;;;34.40;5.97;;;;;;;19.96;50.07;100891.53;4969637;28;20038;-47
2022/02/06 13:45:28;;;;;;;11.10;4.38;;;;;;;19.95;49.74;100879.31;4987756;28;20061;-54
2022/02/06 13:47:55;;;;;;;7.60;4.80;;;;;;;19.93;49.82;100880.53;4981204;28;20026;-55
2022/02/06 13:50:23;;;;;;;16.38;4.88;;;;;;;19.91;49.76;100878.06;4987886;28;20386;-50
2022/02/06 13:53:08;;;;;;;8.30;4.30;;;;;;;19.84;49.67;100875.44;4985375;28;20537;-51
2022/02/06 13:55:42;;;;;;;7.90;4.82;;;;;;;19.83;50.07;100859.75;4967373;28;20085;-55
2022/02/06 13:58:15;;;;;;;7.57;4.15;;;;;;;19.84;50.21;100858.75;4985339;28;20385;-45
2022/02/06 14:01:01;;;;;;;5.55;4.00;;;;;;;19.84;50.57;100856.09;4985675;28;20446;-55
2022/02/06 14:03:52;;;;;;;16.90;4.65;;;;;;;19.90;50.18;100857.94;4967133;28;20034;-50
2022/02/06 14:06:21;;;;;;;20.92;4.90;;;;;;;20.13;49.91;100870.88;4968559;28;20038;-46
2022/02/06 14:09:07;;;;;;;13.18;4.80;;;;;;;20.36;49.27;100865.25;4987989;28;20030;-49
2022/02/06 14:11:34;;;;;;;15.75;4.70;;;;;;;20.56;49.01;100866.16;4996415;23;20618;-48